sensor_id;sensor_type;location;lat;lon;timestamp;pressure;altitude;pressure_sealevel;temperature;humidity
58769;BME280;44536;47.474;19.056;2023-02-28T00:00:11;101598.84;;;0.54;55.63
58769;BME280;44536;47.474;19.056;2023-02-28T00:03:14;101602.03;;;0.73;55.48
58769;BME280;44536;47.474;19.056;2023-02-28T00:06:17;101609.00;;;0.74;55.62
58769;BME280;44536;47.474;19.056;2023-02-28T00:09:19;101607.25;;;0.75;55.81
58769;BME280;44536;47.474;19.056;2023-02-28T00:12:22;101614.97;;;0.82;55.28
58769;BME280;44536;47.474;19.056;2023-02-28T00:15:25;101614.00;;;0.88;54.79
58769;BME280;44536;47.474;19.056;2023-02-28T00:18:27;101621.13;;;0.78;54.78
58769;BME280;44536;47.474;19.056;2023-02-28T00:21:32;101622.03;;;0.74;55.36
58769;BME280;44536;47.474;19.056;2023-02-28T00:24:35;101626.50;;;0.68;56.08
58769;BME280;44536;47.474;19.056;2023-02-28T00:27:39;101622.12;;;0.70;56.05
58769;BME280;44536;47.474;19.056;2023-02-28T00:30:42;101629.03;;;0.72;56.66
58769;BME280;44536;47.474;19.056;2023-02-28T00:33:44;101624.56;;;0.80;57.17
58769;BME280;44536;47.474;19.056;2023-02-28T00:36:49;101630.53;;;0.88;57.44
58769;BME280;44536;47.474;19.056;2023-02-28T00:39:51;101631.53;;;0.80;58.67
58769;BME280;44536;47.474;19.056;2023-02-28T00:42:53;101634.19;;;0.77;58.14
58769;BME280;44536;47.474;19.056;2023-02-28T00:45:56;101634.88;;;0.88;56.87
58769;BME280;44536;47.474;19.056;2023-02-28T00:48:58;101628.72;;;0.93;56.28
58769;BME280;44536;47.474;19.056;2023-02-28T00:52:01;101639.91;;;1.02;56.03
58769;BME280;44536;47.474;19.056;2023-02-28T00:55:04;101631.88;;;1.11;55.35
58769;BME280;44536;47.474;19.056;2023-02-28T00:58:07;101633.72;;;1.04;54.11
58769;BME280;44536;47.474;19.056;2023-02-28T01:01:09;101636.50;;;0.96;55.18
58769;BME280;44536;47.474;19.056;2023-02-28T01:04:13;101643.56;;;0.90;56.04
58769;BME280;44536;47.474;19.056;2023-02-28T01:07:16;101643.41;;;1.01;55.84
58769;BME280;44536;47.474;19.056;2023-02-28T01:10:18;101638.22;;;0.97;56.54
58769;BME280;44536;47.474;19.056;2023-02-28T01:13:21;101638.19;;;1.01;55.72
58769;BME280;44536;47.474;19.056;2023-02-28T01:16:25;101640.50;;;1.16;54.17
58769;BME280;44536;47.474;19.056;2023-02-28T01:19:28;101646.66;;;1.12;54.41
58769;BME280;44536;47.474;19.056;2023-02-28T01:22:30;101638.22;;;0.97;54.61
58769;BME280;44536;47.474;19.056;2023-02-28T01:25:36;101639.72;;;1.11;54.51
58769;BME280;44536;47.474;19.056;2023-02-28T01:28:39;101639.87;;;1.03;55.43
58769;BME280;44536;47.474;19.056;2023-02-28T01:31:42;101645.34;;;0.88;55.68
58769;BME280;44536;47.474;19.056;2023-02-28T01:34:44;101643.41;;;0.99;55.76
58769;BME280;44536;47.474;19.056;2023-02-28T01:37:47;101642.69;;;0.89;56.16
58769;BME280;44536;47.474;19.056;2023-02-28T01:40:51;101639.97;;;0.97;55.39
58769;BME280;44536;47.474;19.056;2023-02-28T01:43:55;101637.44;;;0.92;55.37
58769;BME280;44536;47.474;19.056;2023-02-28T01:46:58;101636.53;;;0.93;55.67
58769;BME280;44536;47.474;19.056;2023-02-28T01:50:02;101640.75;;;1.04;55.90
58769;BME280;44536;47.474;19.056;2023-02-28T01:53:09;101631.22;;;0.99;55.15
58769;BME280;44536;47.474;19.056;2023-02-28T01:56:20;101633.91;;;0.95;55.67
58769;BME280;44536;47.474;19.056;2023-02-28T01:59:29;101632.97;;;0.99;56.61
58769;BME280;44536;47.474;19.056;2023-02-28T02:02:36;101625.19;;;0.96;57.10
58769;BME280;44536;47.474;19.056;2023-02-28T02:05:40;101637.22;;;1.05;57.56
58769;BME280;44536;47.474;19.056;2023-02-28T02:08:42;101635.53;;;1.02;57.65
58769;BME280;44536;47.474;19.056;2023-02-28T02:11:46;101629.75;;;0.82;57.34
58769;BME280;44536;47.474;19.056;2023-02-28T02:15:16;101627.94;;;0.87;57.87
58769;BME280;44536;47.474;19.056;2023-02-28T02:18:38;101634.00;;;0.89;56.98
58769;BME280;44536;47.474;19.056;2023-02-28T02:28:41;101627.81;;;0.96;56.60
58769;BME280;44536;47.474;19.056;2023-02-28T02:35:40;101634.59;;;1.05;55.74
58769;BME280;44536;47.474;19.056;2023-02-28T02:39:00;101631.34;;;0.92;55.93
58769;BME280;44536;47.474;19.056;2023-02-28T02:42:12;101637.47;;;0.89;54.82
58769;BME280;44536;47.474;19.056;2023-02-28T02:45:21;101628.78;;;0.89;54.08
58769;BME280;44536;47.474;19.056;2023-02-28T02:48:30;101630.78;;;0.72;55.11
58769;BME280;44536;47.474;19.056;2023-02-28T02:51:35;101642.12;;;0.71;55.67
58769;BME280;44536;47.474;19.056;2023-02-28T02:54:43;101637.66;;;0.77;55.27
58769;BME280;44536;47.474;19.056;2023-02-28T02:57:52;101624.03;;;0.57;56.55
58769;BME280;44536;47.474;19.056;2023-02-28T03:00:58;101632.50;;;0.73;55.12
58769;BME280;44536;47.474;19.056;2023-02-28T03:04:16;101638.75;;;0.62;55.89
58769;BME280;44536;47.474;19.056;2023-02-28T03:07:19;101633.41;;;0.72;54.95
58769;BME280;44536;47.474;19.056;2023-02-28T03:13:48;101636.06;;;0.67;55.39
58769;BME280;44536;47.474;19.056;2023-02-28T03:20:45;101642.12;;;0.71;56.43
58769;BME280;44536;47.474;19.056;2023-02-28T03:24:04;101645.75;;;0.60;57.86
58769;BME280;44536;47.474;19.056;2023-02-28T03:27:18;101646.50;;;0.69;57.17
58769;BME280;44536;47.474;19.056;2023-02-28T03:30:27;101638.66;;;0.69;57.44
58769;BME280;44536;47.474;19.056;2023-02-28T03:33:37;101641.94;;;0.83;55.47
58769;BME280;44536;47.474;19.056;2023-02-28T03:36:47;101640.37;;;0.71;56.47
58769;BME280;44536;47.474;19.056;2023-02-28T03:39:58;101638.62;;;0.70;56.53
58769;BME280;44536;47.474;19.056;2023-02-28T03:43:07;101639.47;;;0.74;56.14
58769;BME280;44536;47.474;19.056;2023-02-28T03:46:16;101637.81;;;0.68;56.36
58769;BME280;44536;47.474;19.056;2023-02-28T03:49:25;101648.97;;;0.78;56.05
58769;BME280;44536;47.474;19.056;2023-02-28T03:52:33;101649.16;;;0.65;56.17
58769;BME280;44536;47.474;19.056;2023-02-28T03:59:24;101655.06;;;0.77;55.78
58769;BME280;44536;47.474;19.056;2023-02-28T04:02:27;101646.38;;;0.76;54.99
58769;BME280;44536;47.474;19.056;2023-02-28T04:05:30;101646.34;;;0.79;54.74
58769;BME280;44536;47.474;19.056;2023-02-28T04:08:33;101652.50;;;0.75;55.18
58769;BME280;44536;47.474;19.056;2023-02-28T04:11:41;101642.16;;;0.68;55.88
58769;BME280;44536;47.474;19.056;2023-02-28T04:14:43;101632.59;;;0.68;55.58
58769;BME280;44536;47.474;19.056;2023-02-28T04:17:46;101636.87;;;0.72;55.02
58769;BME280;44536;47.474;19.056;2023-02-28T04:20:48;101637.97;;;0.56;56.17
58769;BME280;44536;47.474;19.056;2023-02-28T04:23:50;101639.69;;;0.58;55.94
58769;BME280;44536;47.474;19.056;2023-02-28T04:26:55;101630.91;;;0.64;56.41
58769;BME280;44536;47.474;19.056;2023-02-28T04:29:58;101630.84;;;0.67;56.23
58769;BME280;44536;47.474;19.056;2023-02-28T04:33:00;101626.56;;;0.63;56.56
58769;BME280;44536;47.474;19.056;2023-02-28T04:36:06;101623.13;;;0.59;56.48
58769;BME280;44536;47.474;19.056;2023-02-28T04:39:09;101632.72;;;0.59;56.64
58769;BME280;44536;47.474;19.056;2023-02-28T04:42:12;101632.75;;;0.56;57.48
58769;BME280;44536;47.474;19.056;2023-02-28T04:45:15;101624.78;;;0.65;57.62
58769;BME280;44536;47.474;19.056;2023-02-28T04:48:17;101635.31;;;0.60;57.98
58769;BME280;44536;47.474;19.056;2023-02-28T04:51:23;101629.25;;;0.57;57.80
58769;BME280;44536;47.474;19.056;2023-02-28T04:54:25;101633.59;;;0.58;57.37
58769;BME280;44536;47.474;19.056;2023-02-28T04:57:27;101632.72;;;0.59;58.42
58769;BME280;44536;47.474;19.056;2023-02-28T05:00:30;101628.22;;;0.69;56.93
58769;BME280;44536;47.474;19.056;2023-02-28T05:03:32;101630.94;;;0.61;57.33
58769;BME280;44536;47.474;19.056;2023-02-28T05:06:35;101627.53;;;0.56;57.80
58769;BME280;44536;47.474;19.056;2023-02-28T05:09:37;101633.66;;;0.55;57.81
58769;BME280;44536;47.474;19.056;2023-02-28T05:12:40;101629.16;;;0.64;57.23
58769;BME280;44536;47.474;19.056;2023-02-28T05:15:42;101632.66;;;0.63;58.57
58769;BME280;44536;47.474;19.056;2023-02-28T05:18:45;101635.38;;;0.56;59.48
58769;BME280;44536;47.474;19.056;2023-02-28T05:21:52;101630.16;;;0.56;59.61
58769;BME280;44536;47.474;19.056;2023-02-28T05:24:55;101629.75;;;0.82;56.49
58769;BME280;44536;47.474;19.056;2023-02-28T05:27:57;101642.03;;;0.75;56.68
58769;BME280;44536;47.474;19.056;2023-02-28T05:31:00;101645.62;;;0.68;57.42
58769;BME280;44536;47.474;19.056;2023-02-28T05:34:02;101635.31;;;0.59;57.72
58769;BME280;44536;47.474;19.056;2023-02-28T05:37:07;101645.62;;;0.70;57.95
58769;BME280;44536;47.474;19.056;2023-02-28T05:40:12;101643.87;;;0.70;58.35
58769;BME280;44536;47.474;19.056;2023-02-28T05:43:15;101649.84;;;0.78;57.95
58769;BME280;44536;47.474;19.056;2023-02-28T05:46:17;101648.00;;;0.85;56.92
58769;BME280;44536;47.474;19.056;2023-02-28T05:49:20;101648.19;;;0.73;58.66
58769;BME280;44536;47.474;19.056;2023-02-28T05:52:22;101648.03;;;0.82;57.58
58769;BME280;44536;47.474;19.056;2023-02-28T05:55:25;101653.97;;;0.93;56.56
58769;BME280;44536;47.474;19.056;2023-02-28T05:58:28;101656.50;;;0.97;56.59
58769;BME280;44536;47.474;19.056;2023-02-28T06:01:41;101664.94;;;1.13;55.90
58769;BME280;44536;47.474;19.056;2023-02-28T06:04:45;101658.53;;;1.31;54.96
58769;BME280;44536;47.474;19.056;2023-02-28T06:07:47;101657.78;;;1.24;54.99
58769;BME280;44536;47.474;19.056;2023-02-28T06:10:50;101653.50;;;1.20;55.26
58769;BME280;44536;47.474;19.056;2023-02-28T06:13:57;101658.44;;;1.37;54.88
58769;BME280;44536;47.474;19.056;2023-02-28T06:17:00;101668.81;;;1.42;55.57
58769;BME280;44536;47.474;19.056;2023-02-28T06:20:03;101666.09;;;1.48;56.32
58769;BME280;44536;47.474;19.056;2023-02-28T06:23:06;101667.84;;;1.47;56.39
58769;BME280;44536;47.474;19.056;2023-02-28T06:26:08;101664.13;;;1.59;55.82
58769;BME280;44536;47.474;19.056;2023-02-28T06:29:11;101670.16;;;1.62;54.72
58769;BME280;44536;47.474;19.056;2023-02-28T06:32:14;101671.09;;;1.58;55.38
58769;BME280;44536;47.474;19.056;2023-02-28T06:35:16;101681.56;;;1.58;54.95
58769;BME280;44536;47.474;19.056;2023-02-28T06:38:19;101683.12;;;1.69;54.32
58769;BME280;44536;47.474;19.056;2023-02-28T06:41:24;101675.88;;;1.83;53.21
58769;BME280;44536;47.474;19.056;2023-02-28T06:44:27;101689.84;;;1.82;54.51
58769;BME280;44536;47.474;19.056;2023-02-28T06:47:37;101694.84;;;1.94;54.44
58769;BME280;44536;47.474;19.056;2023-02-28T06:50:40;101694.81;;;1.97;52.91
58769;BME280;44536;47.474;19.056;2023-02-28T06:53:43;101693.47;;;2.19;53.01
58769;BME280;44536;47.474;19.056;2023-02-28T06:56:45;101685.66;;;2.16;53.48
58769;BME280;44536;47.474;19.056;2023-02-28T06:59:49;101690.41;;;2.41;51.79
58769;BME280;44536;47.474;19.056;2023-02-28T07:02:51;101686.09;;;2.38;52.12
58769;BME280;44536;47.474;19.056;2023-02-28T07:05:54;101690.47;;;2.76;50.39
58769;BME280;44536;47.474;19.056;2023-02-28T07:08:58;101693.81;;;2.83;50.05
58769;BME280;44536;47.474;19.056;2023-02-28T07:12:02;101693.59;;;3.29;49.57
58769;BME280;44536;47.474;19.056;2023-02-28T07:15:05;101701.37;;;3.66;48.53
58769;BME280;44536;47.474;19.056;2023-02-28T07:18:08;101702.31;;;3.96;47.69
58769;BME280;44536;47.474;19.056;2023-02-28T07:21:10;101703.75;;;3.75;46.89
58769;BME280;44536;47.474;19.056;2023-02-28T07:24:13;101708.13;;;3.75;47.51
58769;BME280;44536;47.474;19.056;2023-02-28T07:27:17;101707.00;;;3.85;46.80
58769;BME280;44536;47.474;19.056;2023-02-28T07:30:26;101708.44;;;3.96;47.25
58769;BME280;44536;47.474;19.056;2023-02-28T07:33:28;101701.78;;;4.16;47.41
58769;BME280;44536;47.474;19.056;2023-02-28T07:36:31;101705.34;;;4.13;46.05
58769;BME280;44536;47.474;19.056;2023-02-28T07:39:33;101706.00;;;4.20;45.42
58769;BME280;44536;47.474;19.056;2023-02-28T07:42:35;101720.66;;;3.97;45.50
58769;BME280;44536;47.474;19.056;2023-02-28T07:45:38;101720.84;;;3.90;47.42
58769;BME280;44536;47.474;19.056;2023-02-28T07:48:41;101714.13;;;4.12;46.21
58769;BME280;44536;47.474;19.056;2023-02-28T07:51:48;101714.94;;;4.14;45.29
58769;BME280;44536;47.474;19.056;2023-02-28T07:54:51;101723.00;;;4.08;45.43
58769;BME280;44536;47.474;19.056;2023-02-28T07:57:53;101715.56;;;4.22;46.47
58769;BME280;44536;47.474;19.056;2023-02-28T08:00:57;101720.38;;;4.08;45.72
58769;BME280;44536;47.474;19.056;2023-02-28T08:04:00;101721.59;;;4.26;45.26
58769;BME280;44536;47.474;19.056;2023-02-28T08:07:02;101714.16;;;4.42;45.20
58769;BME280;44536;47.474;19.056;2023-02-28T08:10:05;101715.66;;;4.78;45.18
58769;BME280;44536;47.474;19.056;2023-02-28T08:13:07;101714.78;;;5.07;45.03
58769;BME280;44536;47.474;19.056;2023-02-28T08:16:12;101713.16;;;5.29;44.09
58769;BME280;44536;47.474;19.056;2023-02-28T08:19:19;101707.44;;;5.43;45.54
58769;BME280;44536;47.474;19.056;2023-02-28T08:22:21;101713.00;;;5.85;43.57
58769;BME280;44536;47.474;19.056;2023-02-28T08:25:24;101714.22;;;5.50;44.01
58769;BME280;44536;47.474;19.056;2023-02-28T08:28:26;101716.66;;;5.56;42.51
58769;BME280;44536;47.474;19.056;2023-02-28T08:31:29;101709.72;;;5.79;42.53
58769;BME280;44536;47.474;19.056;2023-02-28T08:34:32;101714.47;;;5.94;42.25
58769;BME280;44536;47.474;19.056;2023-02-28T08:37:34;101714.47;;;5.69;43.64
58769;BME280;44536;47.474;19.056;2023-02-28T08:40:37;101712.56;;;5.99;41.74
58769;BME280;44536;47.474;19.056;2023-02-28T08:43:40;101713.56;;;5.70;41.99
58769;BME280;44536;47.474;19.056;2023-02-28T08:46:42;101712.94;;;5.62;41.84
58769;BME280;44536;47.474;19.056;2023-02-28T08:49:45;101714.06;;;5.55;42.64
58769;BME280;44536;47.474;19.056;2023-02-28T08:52:48;101707.25;;;5.74;43.05
58769;BME280;44536;47.474;19.056;2023-02-28T08:56:05;101718.53;;;6.27;41.64
58769;BME280;44536;47.474;19.056;2023-02-28T08:59:08;101707.75;;;5.60;42.49
58769;BME280;44536;47.474;19.056;2023-02-28T09:02:14;101705.72;;;5.69;42.40
58769;BME280;44536;47.474;19.056;2023-02-28T09:05:17;101713.41;;;5.48;42.35
58769;BME280;44536;47.474;19.056;2023-02-28T09:08:19;101711.66;;;5.74;42.38
58769;BME280;44536;47.474;19.056;2023-02-28T09:11:22;101711.41;;;6.06;43.13
58769;BME280;44536;47.474;19.056;2023-02-28T09:14:24;101708.81;;;6.53;44.47
58769;BME280;44536;47.474;19.056;2023-02-28T09:17:26;101713.16;;;6.54;41.49
58769;BME280;44536;47.474;19.056;2023-02-28T09:20:32;101715.88;;;6.27;41.31
58769;BME280;44536;47.474;19.056;2023-02-28T09:23:35;101712.94;;;6.60;40.96
58769;BME280;44536;47.474;19.056;2023-02-28T09:26:40;101711.09;;;6.62;41.06
58769;BME280;44536;47.474;19.056;2023-02-28T09:29:48;101717.00;;;6.45;41.58
58769;BME280;44536;47.474;19.056;2023-02-28T09:32:50;101717.38;;;6.35;42.30
58769;BME280;44536;47.474;19.056;2023-02-28T09:35:59;101716.31;;;6.40;41.73
58769;BME280;44536;47.474;19.056;2023-02-28T09:39:02;101714.53;;;6.41;43.68
58769;BME280;44536;47.474;19.056;2023-02-28T09:42:05;101711.56;;;7.17;48.23
58769;BME280;44536;47.474;19.056;2023-02-28T09:45:27;101702.31;;;7.69;39.36
58769;BME280;44536;47.474;19.056;2023-02-28T09:48:39;101713.97;;;7.43;42.04
58769;BME280;44536;47.474;19.056;2023-02-28T09:51:59;101701.03;;;7.37;41.47
58769;BME280;44536;47.474;19.056;2023-02-28T10:01:57;101711.37;;;7.63;40.04
58769;BME280;44536;47.474;19.056;2023-02-28T10:05:16;101707.16;;;7.38;40.94
58769;BME280;44536;47.474;19.056;2023-02-28T10:08:25;101707.94;;;6.97;41.34
58769;BME280;44536;47.474;19.056;2023-02-28T10:11:32;101697.25;;;7.01;42.08
58769;BME280;44536;47.474;19.056;2023-02-28T10:14:38;101697.63;;;7.13;40.47
58769;BME280;44536;47.474;19.056;2023-02-28T10:17:47;101695.41;;;7.67;41.15
58769;BME280;44536;47.474;19.056;2023-02-28T10:21:02;101697.16;;;8.07;40.41
58769;BME280;44536;47.474;19.056;2023-02-28T10:24:19;101689.19;;;7.68;41.10
58769;BME280;44536;47.474;19.056;2023-02-28T10:27:25;101699.72;;;8.47;39.56
58769;BME280;44536;47.474;19.056;2023-02-28T10:30:28;101689.91;;;8.30;39.70
58769;BME280;44536;47.474;19.056;2023-02-28T10:33:33;101688.44;;;8.62;38.04
58769;BME280;44536;47.474;19.056;2023-02-28T10:36:39;101691.69;;;7.71;39.41
58769;BME280;44536;47.474;19.056;2023-02-28T10:49:20;101668.69;;;8.88;37.60
58769;BME280;44536;47.474;19.056;2023-02-28T10:52:37;101661.72;;;8.50;38.41
58769;BME280;44536;47.474;19.056;2023-02-28T10:55:41;101660.34;;;8.79;38.55
58769;BME280;44536;47.474;19.056;2023-02-28T10:59:05;101663.72;;;8.45;38.58
58769;BME280;44536;47.474;19.056;2023-02-28T11:02:34;101666.44;;;8.04;41.11
58769;BME280;44536;47.474;19.056;2023-02-28T11:05:37;101661.97;;;8.25;39.33
58769;BME280;44536;47.474;19.056;2023-02-28T11:09:06;101668.75;;;8.12;39.52
58769;BME280;44536;47.474;19.056;2023-02-28T11:15:30;101657.53;;;7.86;40.20
58769;BME280;44536;47.474;19.056;2023-02-28T11:18:41;101651.59;;;8.02;40.25
58769;BME280;44536;47.474;19.056;2023-02-28T11:21:57;101655.53;;;8.12;39.67
58769;BME280;44536;47.474;19.056;2023-02-28T11:25:03;101662.59;;;7.72;40.07
58769;BME280;44536;47.474;19.056;2023-02-28T11:28:29;101653.00;;;7.49;41.78
58769;BME280;44536;47.474;19.056;2023-02-28T11:31:33;101657.97;;;7.77;41.83
58769;BME280;44536;47.474;19.056;2023-02-28T11:34:37;101646.63;;;8.14;41.46
58769;BME280;44536;47.474;19.056;2023-02-28T11:37:40;101642.78;;;7.42;41.57
58769;BME280;44536;47.474;19.056;2023-02-28T11:40:52;101652.59;;;7.38;42.97
58769;BME280;44536;47.474;19.056;2023-02-28T11:44:33;101640.72;;;7.28;42.35
58769;BME280;44536;47.474;19.056;2023-02-28T11:47:48;101646.53;;;7.36;43.09
58769;BME280;44536;47.474;19.056;2023-02-28T11:51:01;101641.81;;;7.64;42.70
58769;BME280;44536;47.474;19.056;2023-02-28T12:05:21;101624.50;;;8.90;40.18
58769;BME280;44536;47.474;19.056;2023-02-28T12:08:47;101628.12;;;8.71;39.55
58769;BME280;44536;47.474;19.056;2023-02-28T12:28:12;101608.97;;;10.19;37.82
58769;BME280;44536;47.474;19.056;2023-02-28T12:31:29;101602.06;;;9.84;37.39
58769;BME280;44536;47.474;19.056;2023-02-28T12:34:38;101604.44;;;9.88;38.39
58769;BME280;44536;47.474;19.056;2023-02-28T12:37:47;101586.72;;;9.73;38.32
58769;BME280;44536;47.474;19.056;2023-02-28T12:40:59;101593.47;;;10.12;38.16
58769;BME280;44536;47.474;19.056;2023-02-28T12:44:11;101589.84;;;10.30;38.17
58769;BME280;44536;47.474;19.056;2023-02-28T12:47:17;101584.94;;;10.22;37.45
58769;BME280;44536;47.474;19.056;2023-02-28T12:50:22;101585.75;;;10.07;37.83
58769;BME280;44536;47.474;19.056;2023-02-28T12:56:38;101587.31;;;10.74;37.32
58769;BME280;44536;47.474;19.056;2023-02-28T13:00:12;101575.41;;;10.81;37.41
58769;BME280;44536;47.474;19.056;2023-02-28T13:03:32;101578.50;;;10.89;36.57
58769;BME280;44536;47.474;19.056;2023-02-28T13:10:17;101578.78;;;10.22;39.52
58769;BME280;44536;47.474;19.056;2023-02-28T13:13:24;101567.53;;;10.80;37.18
58769;BME280;44536;47.474;19.056;2023-02-28T13:20:18;101565.41;;;11.31;36.51
58769;BME280;44536;47.474;19.056;2023-02-28T13:23:38;101563.53;;;11.47;36.52
58769;BME280;44536;47.474;19.056;2023-02-28T13:40:29;101568.22;;;9.39;40.66
58769;BME280;44536;47.474;19.056;2023-02-28T13:44:05;101552.84;;;9.29;40.27
58769;BME280;44536;47.474;19.056;2023-02-28T13:54:03;101540.75;;;8.55;43.46
58769;BME280;44536;47.474;19.056;2023-02-28T14:03:58;101529.53;;;7.76;44.24
58769;BME280;44536;47.474;19.056;2023-02-28T14:07:06;101538.56;;;7.89;44.09
58769;BME280;44536;47.474;19.056;2023-02-28T14:10:42;101529.34;;;7.60;44.44
58769;BME280;44536;47.474;19.056;2023-02-28T14:13:45;101530.25;;;7.41;45.14
58769;BME280;44536;47.474;19.056;2023-02-28T14:16:49;101521.19;;;7.27;44.94
58769;BME280;44536;47.474;19.056;2023-02-28T14:19:52;101528.97;;;7.10;46.92
58769;BME280;44536;47.474;19.056;2023-02-28T14:26:33;101536.22;;;7.05;45.87
58769;BME280;44536;47.474;19.056;2023-02-28T14:33:53;101526.59;;;6.62;46.61
58769;BME280;44536;47.474;19.056;2023-02-28T14:36:37;101517.38;;;6.52;48.29
58769;BME280;44536;47.474;19.056;2023-02-28T14:39:43;101514.22;;;6.64;48.28
58769;BME280;44536;47.474;19.056;2023-02-28T14:43:05;101515.84;;;7.09;47.44
58769;BME280;44536;47.474;19.056;2023-02-28T14:46:12;101517.41;;;7.13;46.56
58769;BME280;44536;47.474;19.056;2023-02-28T14:49:26;101518.91;;;6.78;47.54
58769;BME280;44536;47.474;19.056;2023-02-28T14:52:31;101520.34;;;6.64;47.34
58769;BME280;44536;47.474;19.056;2023-02-28T14:55:35;101513.00;;;6.51;47.70
58769;BME280;44536;47.474;19.056;2023-02-28T14:58:37;101522.75;;;6.49;48.77
58769;BME280;44536;47.474;19.056;2023-02-28T15:01:40;101523.78;;;6.45;48.22
58769;BME280;44536;47.474;19.056;2023-02-28T15:04:42;101523.06;;;6.41;48.76
58769;BME280;44536;47.474;19.056;2023-02-28T15:07:49;101522.19;;;6.41;48.36
58769;BME280;44536;47.474;19.056;2023-02-28T15:11:04;101519.13;;;6.29;48.39
58769;BME280;44536;47.474;19.056;2023-02-28T15:14:18;101534.09;;;6.29;48.32
58769;BME280;44536;47.474;19.056;2023-02-28T15:17:23;101536.94;;;6.01;50.00
58769;BME280;44536;47.474;19.056;2023-02-28T15:20:27;101530.19;;;5.94;48.85
58769;BME280;44536;47.474;19.056;2023-02-28T15:23:29;101532.41;;;5.81;49.41
58769;BME280;44536;47.474;19.056;2023-02-28T15:26:37;101527.75;;;5.89;49.57
58769;BME280;44536;47.474;19.056;2023-02-28T15:29:46;101533.62;;;5.96;49.67
58769;BME280;44536;47.474;19.056;2023-02-28T15:33:23;101535.66;;;5.88;49.79
58769;BME280;44536;47.474;19.056;2023-02-28T15:36:29;101524.06;;;5.70;50.51
58769;BME280;44536;47.474;19.056;2023-02-28T15:39:42;101528.53;;;5.68;51.54
58769;BME280;44536;47.474;19.056;2023-02-28T15:43:15;101522.53;;;5.64;52.47
58769;BME280;44536;47.474;19.056;2023-02-28T15:46:19;101526.41;;;5.54;52.51
58769;BME280;44536;47.474;19.056;2023-02-28T15:49:22;101531.69;;;5.29;52.96
58769;BME280;44536;47.474;19.056;2023-02-28T15:52:39;101526.69;;;5.22;53.30
58769;BME280;44536;47.474;19.056;2023-02-28T15:55:44;101529.88;;;5.07;53.91
58769;BME280;44536;47.474;19.056;2023-02-28T15:58:46;101526.00;;;4.92;54.16
58769;BME280;44536;47.474;19.056;2023-02-28T16:05:18;101515.03;;;4.79;54.93
58769;BME280;44536;47.474;19.056;2023-02-28T16:08:20;101517.72;;;4.78;55.38
58769;BME280;44536;47.474;19.056;2023-02-28T16:11:23;101521.25;;;4.77;55.44
58769;BME280;44536;47.474;19.056;2023-02-28T16:14:26;101528.19;;;4.79;55.44
58769;BME280;44536;47.474;19.056;2023-02-28T16:17:33;101531.00;;;4.73;55.82
58769;BME280;44536;47.474;19.056;2023-02-28T16:20:36;101537.22;;;4.71;55.76
58769;BME280;44536;47.474;19.056;2023-02-28T16:23:38;101542.72;;;4.64;56.38
58769;BME280;44536;47.474;19.056;2023-02-28T16:26:47;101535.94;;;4.57;56.51
58769;BME280;44536;47.474;19.056;2023-02-28T16:29:50;101538.41;;;4.62;56.35
58769;BME280;44536;47.474;19.056;2023-02-28T16:32:55;101539.31;;;4.61;56.46
58769;BME280;44536;47.474;19.056;2023-02-28T16:35:58;101541.91;;;4.62;56.97
58769;BME280;44536;47.474;19.056;2023-02-28T16:39:00;101538.47;;;4.60;57.09
58769;BME280;44536;47.474;19.056;2023-02-28T16:42:05;101541.16;;;4.59;56.88
58769;BME280;44536;47.474;19.056;2023-02-28T16:45:15;101543.06;;;4.54;57.59
58769;BME280;44536;47.474;19.056;2023-02-28T16:48:18;101546.50;;;4.56;58.18
58769;BME280;44536;47.474;19.056;2023-02-28T16:51:20;101553.81;;;4.46;58.59
58769;BME280;44536;47.474;19.056;2023-02-28T16:54:23;101550.03;;;4.55;57.89
58769;BME280;44536;47.474;19.056;2023-02-28T16:57:25;101556.09;;;4.57;57.92
58769;BME280;44536;47.474;19.056;2023-02-28T17:00:29;101561.19;;;4.61;58.11
58769;BME280;44536;47.474;19.056;2023-02-28T17:03:32;101564.63;;;4.63;58.15
58769;BME280;44536;47.474;19.056;2023-02-28T17:06:35;101562.87;;;4.64;58.54
58769;BME280;44536;47.474;19.056;2023-02-28T17:09:38;101568.97;;;4.64;58.38
58769;BME280;44536;47.474;19.056;2023-02-28T17:12:44;101571.50;;;4.68;58.43
58769;BME280;44536;47.474;19.056;2023-02-28T17:15:47;101569.94;;;4.62;59.09
58769;BME280;44536;47.474;19.056;2023-02-28T17:18:50;101565.59;;;4.61;58.85
58769;BME280;44536;47.474;19.056;2023-02-28T17:21:52;101573.63;;;4.56;59.29
58769;BME280;44536;47.474;19.056;2023-02-28T17:24:55;101579.78;;;4.55;59.85
58769;BME280;44536;47.474;19.056;2023-02-28T17:27:57;101572.03;;;4.51;59.80
58769;BME280;44536;47.474;19.056;2023-02-28T17:31:00;101580.88;;;4.48;59.74
58769;BME280;44536;47.474;19.056;2023-02-28T17:34:02;101573.09;;;4.45;60.09
58769;BME280;44536;47.474;19.056;2023-02-28T17:37:05;101572.34;;;4.42;59.99
58769;BME280;44536;47.474;19.056;2023-02-28T17:40:22;101570.59;;;4.41;60.13
58769;BME280;44536;47.474;19.056;2023-02-28T17:43:26;101582.87;;;4.40;60.12
58769;BME280;44536;47.474;19.056;2023-02-28T17:46:28;101578.69;;;4.35;60.42
58769;BME280;44536;47.474;19.056;2023-02-28T17:49:31;101570.84;;;4.33;60.61
58769;BME280;44536;47.474;19.056;2023-02-28T17:52:35;101570.88;;;4.31;60.83
58769;BME280;44536;47.474;19.056;2023-02-28T17:55:39;101566.59;;;4.29;60.89
58769;BME280;44536;47.474;19.056;2023-02-28T17:58:42;101570.03;;;4.31;61.20
58769;BME280;44536;47.474;19.056;2023-02-28T18:01:44;101577.78;;;4.36;61.22
58769;BME280;44536;47.474;19.056;2023-02-28T18:04:47;101577.91;;;4.31;61.50
58769;BME280;44536;47.474;19.056;2023-02-28T18:07:49;101588.38;;;4.32;61.51
58769;BME280;44536;47.474;19.056;2023-02-28T18:10:52;101587.38;;;4.37;61.72